LIMELIBD

Guest
Details From LIME - Bergamo Orio Al Serio
To LIBD - Bari Palese Macchie
Flight Number -
Tags decoded
Created
Modified
Stats Distance 412 nm / 763 km
Max Altitude 0 ft / 0 m
Waypoints 7
Social Downloads 2
Likes 0
Share VATSIM

Download

Looking for another format? Having issues loading an existing format? Contact us
Advertisement - Login to hide

Notes

Requested: LIME LOGDI UT293 LURUT UY11 PETAS UY765 ANC UL612 VIE T415 EKMUR LIBD Unmatched points: LOGDI UT293 LURUT UY11 UY765 T415 EKMUR

Route

LIME ANC UL612 VIE LIBD

ID Type Via Altitude Latitude Longitude Leg Dist Tot Dist Heading (true) Name
O LIME APT - 0 ft / 0 m 45.67200˚ 9.70689˚ - 0 nm - Bergamo Orio Al Serio
ANC NDB - 0 ft / 0 m 43.58667˚ 13.47222˚ 203 nm 203 nm 127° / 129° ANCONA NDB
NUTRO FIX UL612 (AWY-HI) 0 ft / 0 m 43.16000˚ 14.14917˚ 39 nm 242 nm 131° / 131° -
ARPIK FIX UL612 (AWY-HI) 0 ft / 0 m 42.74694˚ 14.79222˚ 37 nm 280 nm 131° / 131° -
POLYP FIX UL612 (AWY-HI) 0 ft / 0 m 42.47833˚ 15.20250˚ 24 nm 304 nm 132° / 132° -
VIE VOR UL612 (AWY-HI) 0 ft / 0 m 41.91274˚ 16.04914˚ 50 nm 355 nm 132° / 132° VIESTE VOR-DME
O LIBD APT - 0 ft / 0 m 41.13787˚ 16.75832˚ 56 nm 412 nm 145° / 146° Bari Palese Macchie

Altitude Profile

Advertisement - Login to hide

Weather


0- 5 10 15 20 25 30 35+ Temperature / ° C

Clouds and Precipitation
Forecast for 2017-12-16 12:00 UTC. Updated 5 minutes ago

Ground ~20,000 ft ~40,000 ft Winds

LIME

Details ICAO LIME (BGY)
Name Bergamo Orio Al Serio
Region Italy
Timezone Europe/Rome (UTC+1.0)
Stats Elevation 779 ft / 237 m (AMSL)
Location 45.672004° 9.706892°
Runways 2
Magnetic Variation 2.603° E

METAR

LIME 160650Z 36003KT 5000 BR SCT005 00/M01 Q1004 NOSIG

Decode

TAF

TAF LIME 160500Z 1606/1706 03006KT 6000 NSC

Decode

Departure Runways

ID Width Length Bearing (true) Bearing (mag) Surface Threshold Offset Overrun Length
10 148 ft / 45 m 9,897 ft / 3,017 m 104.89° 102.29° Asphalt 312 ft / 95 m 0 ft / 0 m
12 59 ft / 18 m 2,665 ft / 812 m 121.47° 118.87° Asphalt 197 ft / 60 m 0 ft / 0 m
28 148 ft / 45 m 9,897 ft / 3,017 m 284.91° 282.31° Asphalt 712 ft / 217 m 0 ft / 0 m
30 59 ft / 18 m 2,665 ft / 812 m 301.48° 298.88° Asphalt 312 ft / 95 m 0 ft / 0 m

LIBD

Details ICAO LIBD (BRI)
Name Bari Palese Macchie
Region Italy
Timezone Europe/Rome (UTC+1.0)
Stats Elevation 177 ft / 54 m (AMSL)
Location 41.137865° 16.758318°
Runways 1
Magnetic Variation 3.738° E

METAR

LIBD 160650Z 29009KT CAVOK 11/05 Q1005

Decode

TAF

TAF LIBD 160500Z 1606/1706 24013KT 9999 SCT030= TAF LIBP 160500Z 1606/1706 23012KT 9999 SCT030 BECMG 1608/1610 VRB05KT BECMG 1616/1618 28012KT TEMPO 1700/1706 4000 TSRA

Decode

Destination Runways

ID Width Length Bearing (true) Bearing (mag) Surface Threshold Offset Overrun Length
07 148 ft / 45 m 9,262 ft / 2,823 m 69.39° 65.65° Asphalt 1,257 ft / 383 m 0 ft / 0 m
25 148 ft / 45 m 9,262 ft / 2,823 m 249.42° 245.68° Asphalt 0 ft / 0 m 194 ft / 59 m

Approach Navaids

Runway Type Ident Frequency Range Bearing (true) Bearing (mag) Slope Elevation
07 Localiser BAP 111.35 MHz 18 nm / 33 km 69.25° 65.51° - 177 ft / 54 m (AMSL)
07 Glidescope BAP 111.35 MHz 10 nm / 19 km 69.25° 65.51° 3.32° 177 ft / 54 m (AMSL)
07 DME BAP 111.35 MHz 18 nm / 33 km - - - 183 ft / 56 m (AMSL)

Popular Alternatives